Time;durP1;ratioP1;P1;durP2;ratioP2;P2;SDS_P1;SDS_P2;PMS_P1;PMS_P2;Temp;Humidity;BMP_temperature;BMP_pressure;BME280_temperature;BME280_humidity;BME280_pressure;Samples;Min_cycle;Max_cycle;Signal;HPM_P1;HPM_P2
2022/11/22 05:31:05;;;;;;;;;1.00;0.00;;;;;;;;5304607;24;46484;-59
2022/11/22 05:33:30;;;;;;;;;0.00;0.00;;;;;;;;4717294;30;45284;-59
2022/11/22 05:35:56;;;;;;;;;0.00;0.00;;;;;;;;4703860;30;45322;-59
2022/11/22 05:38:21;;;;;;;;;0.33;0.33;;;;;;;;4706648;30;46550;-59
2022/11/22 05:40:46;;;;;;;;;0.00;0.00;;;;;;;;4713632;30;45353;-59
2022/11/22 05:43:11;;;;;;;;;0.00;0.00;;;;;;;;4704689;30;45519;-59
2022/11/22 05:45:36;;;;;;;;;0.00;0.00;;;;;;;;4703435;30;45286;-59
2022/11/22 05:48:01;;;;;;;;;0.33;0.33;;;;;;;;4702483;30;46087;-59
2022/11/22 05:50:27;;;;;;;;;1.00;1.00;;;;;;;;4696566;30;45536;-59
2022/11/22 05:52:52;;;;;;;;;0.00;0.00;;;;;;;;4710876;30;45449;-59
2022/11/22 05:55:17;;;;;;;;;1.00;0.00;;;;;;;;4702883;30;45672;-59
2022/11/22 05:57:42;;;;;;;;;0.00;0.00;;;;;;;;4700408;30;45998;-59
2022/11/22 06:00:08;;;;;;;;;0.00;0.00;;;;;;;;4711329;30;45384;-59
2022/11/22 06:02:33;;;;;;;;;0.00;0.00;;;;;;;;4702817;30;45495;-59
2022/11/22 06:04:58;;;;;;;;;1.67;0.00;;;;;;;;4699423;30;46012;-59
2022/11/22 06:07:23;;;;;;;;;1.00;0.67;;;;;;;;4703092;30;46043;-59
2022/11/22 06:09:48;;;;;;;;;0.00;0.00;;;;;;;;4708525;30;45326;-59
2022/11/22 06:12:14;;;;;;;;;0.00;0.00;;;;;;;;4702643;30;45412;-59
2022/11/22 06:14:39;;;;;;;;;1.00;0.00;;;;;;;;4703079;30;45355;-59
2022/11/22 06:17:04;;;;;;;;;0.33;0.33;;;;;;;;4701962;30;46426;-59
2022/11/22 06:19:29;;;;;;;;;0.00;0.00;;;;;;;;4700423;30;45508;-59
2022/11/22 06:21:55;;;;;;;;;0.00;0.00;;;;;;;;4697119;30;45366;-59
2022/11/22 06:24:20;;;;;;;;;3.00;1.00;;;;;;;;4698273;30;45432;-59
2022/11/22 06:26:45;;;;;;;;;0.67;0.67;;;;;;;;4703055;30;46084;-60
2022/11/22 06:29:10;;;;;;;;;1.00;1.00;;;;;;;;4703095;30;45713;-60
2022/11/22 06:31:36;;;;;;;;;0.33;0.33;;;;;;;;4689190;30;45438;-60
2022/11/22 06:34:01;;;;;;;;;1.00;1.00;;;;;;;;4700765;30;45233;-60
2022/11/22 06:36:27;;;;;;;;;0.00;0.00;;;;;;;;4697645;30;46142;-60
2022/11/22 06:38:53;;;;;;;;;0.00;0.00;;;;;;;;4702877;30;45353;-60
2022/11/22 06:41:19;;;;;;;;;1.00;0.67;;;;;;;;4694526;30;45451;-60
2022/11/22 06:43:45;;;;;;;;;0.33;0.33;;;;;;;;4702392;30;45234;-60
2022/11/22 06:46:11;;;;;;;;;2.00;1.00;;;;;;;;4700580;30;45278;-59
2022/11/22 06:48:37;;;;;;;;;2.67;1.33;;;;;;;;4694280;30;45569;-60
2022/11/22 06:51:06;;;;;;;;;0.00;0.00;;;;;;;;4713276;30;45482;-58
2022/11/22 06:53:32;;;;;;;;;0.00;0.00;;;;;;;;4710761;30;45455;-59
2022/11/22 06:56:01;;;;;;;;;0.00;0.00;;;;;;;;4699810;30;46319;-58
2022/11/22 06:58:26;;;;;;;;;1.00;0.00;;;;;;;;4700058;30;45744;-58
2022/11/22 07:00:52;;;;;;;;;0.00;0.00;;;;;;;;4702503;30;45438;-58
2022/11/22 07:03:17;;;;;;;;;1.33;0.00;;;;;;;;4696531;30;45521;-58
2022/11/22 07:05:49;;;;;;;;;4.33;1.00;;;;;;;;4698884;30;46329;-58
2022/11/22 07:08:14;;;;;;;;;0.33;0.00;;;;;;;;4700340;30;45708;-58
2022/11/22 07:10:39;;;;;;;;;1.00;0.00;;;;;;;;4703705;30;45429;-58
2022/11/22 07:13:04;;;;;;;;;2.00;0.00;;;;;;;;4702190;30;45312;-58
2022/11/22 07:15:30;;;;;;;;;0.00;0.00;;;;;;;;4701804;30;45270;-58
2022/11/22 07:17:55;;;;;;;;;0.00;0.00;;;;;;;;4702155;30;45389;-58
2022/11/22 07:20:20;;;;;;;;;0.33;0.00;;;;;;;;4700314;30;45333;-58
2022/11/22 07:22:46;;;;;;;;;0.00;0.00;;;;;;;;4702269;30;45590;-59
2022/11/22 07:25:11;;;;;;;;;0.00;0.00;;;;;;;;4697782;30;46669;-60
2022/11/22 07:27:36;;;;;;;;;0.00;0.00;;;;;;;;4681289;30;46095;-59
2022/11/22 07:30:02;;;;;;;;;0.00;0.00;;;;;;;;4702467;30;45249;-59
2022/11/22 07:32:27;;;;;;;;;2.67;1.00;;;;;;;;4704396;30;45357;-59
2022/11/22 07:34:52;;;;;;;;;0.00;0.00;;;;;;;;4704972;30;46301;-58
2022/11/22 07:37:17;;;;;;;;;3.00;0.00;;;;;;;;4703883;30;45688;-59
2022/11/22 07:39:42;;;;;;;;;1.00;0.00;;;;;;;;4704285;30;45416;-59
2022/11/22 07:42:08;;;;;;;;;1.00;0.00;;;;;;;;4704630;30;45347;-59
2022/11/22 07:44:33;;;;;;;;;0.00;0.00;;;;;;;;4704685;30;46300;-59
2022/11/22 07:46:58;;;;;;;;;0.67;0.67;;;;;;;;4708189;30;45615;-59
2022/11/22 07:49:23;;;;;;;;;2.00;0.00;;;;;;;;4704516;30;45384;-59
2022/11/22 07:51:48;;;;;;;;;0.00;0.00;;;;;;;;4705319;30;45419;-59
2022/11/22 07:54:13;;;;;;;;;2.00;1.00;;;;;;;;4704241;30;45519;-59
2022/11/22 07:56:39;;;;;;;;;0.00;0.00;;;;;;;;4704726;30;45325;-59
2022/11/22 07:59:29;;;;;;;;;2.33;1.00;;;;;;;;4700253;30;45491;-59
2022/11/22 08:01:54;;;;;;;;;1.33;0.00;;;;;;;;4702016;30;45323;-59
2022/11/22 08:04:19;;;;;;;;;0.00;0.00;;;;;;;;4708346;30;45534;-59
2022/11/22 08:06:44;;;;;;;;;0.00;0.00;;;;;;;;4700739;30;45488;-59
2022/11/22 08:09:10;;;;;;;;;0.00;0.00;;;;;;;;4703009;30;45416;-59
2022/11/22 08:11:35;;;;;;;;;1.00;0.00;;;;;;;;4705017;30;45301;-59
2022/11/22 08:14:01;;;;;;;;;1.67;0.00;;;;;;;;4707413;30;46247;-59
2022/11/22 08:16:26;;;;;;;;;0.33;0.00;;;;;;;;4705806;30;45775;-59
2022/11/22 08:18:51;;;;;;;;;0.33;0.33;;;;;;;;4709259;30;45829;-59
2022/11/22 08:21:17;;;;;;;;;0.00;0.00;;;;;;;;4705324;30;45282;-59
2022/11/22 08:23:43;;;;;;;;;0.00;0.00;;;;;;;;4710540;30;46144;-59
2022/11/22 08:26:11;;;;;;;;;1.00;0.00;;;;;;;;4710035;30;45752;-59
2022/11/22 08:28:36;;;;;;;;;0.00;0.00;;;;;;;;4706520;30;45310;-59
2022/11/22 08:31:06;;;;;;;;;0.00;0.00;;;;;;;;4704759;30;45452;-59
2022/11/22 08:33:31;;;;;;;;;0.00;0.00;;;;;;;;4707226;30;46031;-59
2022/11/22 08:35:56;;;;;;;;;0.33;0.33;;;;;;;;4703708;30;45928;-59
2022/11/22 08:38:21;;;;;;;;;1.00;1.00;;;;;;;;4709209;30;45760;-59
2022/11/22 08:40:47;;;;;;;;;1.00;1.00;;;;;;;;4705235;30;45486;-59
2022/11/22 08:43:12;;;;;;;;;1.00;1.00;;;;;;;;4703839;30;46292;-59
2022/11/22 08:45:37;;;;;;;;;0.67;0.67;;;;;;;;4707731;30;45427;-59
2022/11/22 08:48:03;;;;;;;;;1.33;0.67;;;;;;;;4707975;30;45462;-59
2022/11/22 08:50:28;;;;;;;;;2.67;0.33;;;;;;;;4710965;30;45497;-59
2022/11/22 08:52:53;;;;;;;;;0.00;0.00;;;;;;;;4704548;30;45512;-59
2022/11/22 08:55:18;;;;;;;;;2.00;1.00;;;;;;;;4715011;30;45372;-59
2022/11/22 08:57:44;;;;;;;;;3.00;0.67;;;;;;;;4710496;30;45277;-59
2022/11/22 09:00:10;;;;;;;;;1.33;1.00;;;;;;;;4703359;30;45549;-59
2022/11/22 09:02:35;;;;;;;;;2.33;1.00;;;;;;;;4704160;30;46137;-59
2022/11/22 09:05:00;;;;;;;;;3.00;1.00;;;;;;;;4706622;30;45876;-59
2022/11/22 09:07:26;;;;;;;;;3.67;1.00;;;;;;;;4704164;30;45388;-59
2022/11/22 09:09:52;;;;;;;;;0.67;0.33;;;;;;;;4705989;30;45447;-59
2022/11/22 09:12:17;;;;;;;;;1.00;1.00;;;;;;;;4703114;30;46169;-59
2022/11/22 09:14:43;;;;;;;;;0.00;0.00;;;;;;;;4704493;30;45894;-59
2022/11/22 09:17:08;;;;;;;;;1.00;1.00;;;;;;;;4704174;30;45640;-59
2022/11/22 09:19:33;;;;;;;;;1.67;0.00;;;;;;;;4702519;30;45552;-59
2022/11/22 09:21:58;;;;;;;;;4.00;0.67;;;;;;;;4704099;30;45384;-59
2022/11/22 09:24:23;;;;;;;;;0.00;0.00;;;;;;;;4706662;30;45619;-59
2022/11/22 09:26:49;;;;;;;;;1.67;1.00;;;;;;;;4703538;30;45487;-59
2022/11/22 09:29:14;;;;;;;;;1.00;0.00;;;;;;;;4702966;30;45419;-59
2022/11/22 09:31:40;;;;;;;;;2.67;1.00;;;;;;;;4702915;30;45465;-59
2022/11/22 09:34:05;;;;;;;;;4.00;1.00;;;;;;;;4713586;30;45416;-59
2022/11/22 09:36:31;;;;;;;;;1.00;1.00;;;;;;;;4713366;30;45378;-60
2022/11/22 09:38:56;;;;;;;;;1.00;1.00;;;;;;;;4704586;30;45313;-60
2022/11/22 09:41:29;;;;;;;;;4.67;3.67;;;;;;;;4702680;30;45532;-60
2022/11/22 09:44:03;;;;;;;;;3.33;1.00;;;;;;;;4711993;30;45537;-60
2022/11/22 09:46:29;;;;;;;;;5.33;2.00;;;;;;;;4699220;30;45511;-60
2022/11/22 09:49:13;;;;;;;;;1.00;1.00;;;;;;;;4688999;30;45750;-60
2022/11/22 09:51:41;;;;;;;;;3.00;1.33;;;;;;;;4695708;30;46620;-60
2022/11/22 09:54:12;;;;;;;;;4.00;1.67;;;;;;;;4706052;30;45249;-60
2022/11/22 09:56:38;;;;;;;;;2.67;1.00;;;;;;;;4702408;30;46662;-60
2022/11/22 09:59:12;;;;;;;;;2.00;2.00;;;;;;;;4703814;30;45516;-60
2022/11/22 10:01:49;;;;;;;;;3.00;3.00;;;;;;;;4702377;30;45396;-60
2022/11/22 10:04:14;;;;;;;;;2.33;2.00;;;;;;;;4706273;30;45660;-60
2022/11/22 10:06:41;;;;;;;;;2.67;0.00;;;;;;;;4706174;30;45298;-60
2022/11/22 10:09:26;;;;;;;;;1.00;1.00;;;;;;;;4707718;30;45321;-60
2022/11/22 10:12:02;;;;;;;;;2.00;0.67;;;;;;;;4709436;30;46220;-60
2022/11/22 10:14:33;;;;;;;;;2.67;1.67;;;;;;;;4703976;30;45692;-60
2022/11/22 10:17:05;;;;;;;;;2.33;1.67;;;;;;;;4709247;30;45416;-60
2022/11/22 10:19:36;;;;;;;;;3.00;1.00;;;;;;;;4707471;30;45504;-60
2022/11/22 10:22:07;;;;;;;;;3.33;1.00;;;;;;;;4702446;30;45496;-60
2022/11/22 10:24:32;;;;;;;;;1.67;1.00;;;;;;;;4712382;30;45736;-60
2022/11/22 10:26:58;;;;;;;;;3.00;3.00;;;;;;;;4710154;30;45471;-60
2022/11/22 10:29:36;;;;;;;;;3.33;1.67;;;;;;;;4708969;30;45167;-60
2022/11/22 10:32:17;;;;;;;;;1.00;1.00;;;;;;;;4690536;30;47528;-60
2022/11/22 10:35:00;;;;;;;;;2.00;2.00;;;;;;;;4699033;30;45480;-60
2022/11/22 10:37:40;;;;;;;;;3.00;1.00;;;;;;;;4708715;30;45368;-60
2022/11/22 10:40:08;;;;;;;;;1.00;1.00;;;;;;;;4704933;30;45468;-60
2022/11/22 10:42:54;;;;;;;;;2.33;1.00;;;;;;;;4703356;30;45445;-60
2022/11/22 10:45:24;;;;;;;;;2.33;1.00;;;;;;;;4703797;30;45534;-59
2022/11/22 10:47:58;;;;;;;;;1.75;0.00;;;;;;;;4710338;30;45302;-60
2022/11/22 10:50:26;;;;;;;;;1.00;0.00;;;;;;;;4701397;30;46328;-60
2022/11/22 10:52:58;;;;;;;;;2.00;1.25;;;;;;;;4702487;30;45423;-60
2022/11/22 10:55:35;;;;;;;;;1.00;1.00;;;;;;;;4711985;30;45446;-60
2022/11/22 10:58:13;;;;;;;;;2.00;0.00;;;;;;;;4702976;30;45384;-60
2022/11/22 11:00:42;;;;;;;;;1.50;1.50;;;;;;;;4703823;30;45608;-60
2022/11/22 11:03:12;;;;;;;;;3.75;2.25;;;;;;;;4703954;30;46170;-60
2022/11/22 11:05:42;;;;;;;;;2.00;1.00;;;;;;;;4701246;30;45360;-60
2022/11/22 11:08:12;;;;;;;;;1.75;1.75;;;;;;;;4702706;30;45397;-60
2022/11/22 11:10:39;;;;;;;;;1.00;1.00;;;;;;;;4701783;30;45411;-60
2022/11/22 11:13:25;;;;;;;;;3.00;1.25;;;;;;;;4704218;30;45395;-60
2022/11/22 11:15:52;;;;;;;;;2.00;0.67;;;;;;;;4698999;30;45217;-60
2022/11/22 11:18:23;;;;;;;;;3.25;2.00;;;;;;;;4701636;30;45316;-60
2022/11/22 11:20:50;;;;;;;;;0.00;0.00;;;;;;;;4701252;30;45424;-60
2022/11/22 11:23:15;;;;;;;;;4.00;1.00;;;;;;;;4696163;30;46222;-60
2022/11/22 11:25:42;;;;;;;;;1.75;1.00;;;;;;;;4682951;30;45454;-60
2022/11/22 11:28:15;;;;;;;;;1.00;1.00;;;;;;;;4701590;30;45340;-60
2022/11/22 11:30:46;;;;;;;;;1.00;1.00;;;;;;;;4708727;30;45368;-60
2022/11/22 11:33:25;;;;;;;;;1.25;1.25;;;;;;;;4705245;30;46224;-60
2022/11/22 11:36:02;;;;;;;;;2.00;2.00;;;;;;;;4706818;30;45319;-61
2022/11/22 11:38:29;;;;;;;;;3.75;1.00;;;;;;;;4706309;30;45546;-60
2022/11/22 11:40:54;;;;;;;;;1.00;1.00;;;;;;;;4701626;30;45407;-60
2022/11/22 11:43:21;;;;;;;;;1.00;1.00;;;;;;;;4707552;30;46304;-60
2022/11/22 11:45:46;;;;;;;;;2.00;0.25;;;;;;;;4701739;30;45296;-60
2022/11/22 11:48:30;;;;;;;;;2.75;1.75;;;;;;;;4706267;30;45784;-60
2022/11/22 11:51:24;;;;;;;;;2.75;1.25;;;;;;;;4705032;30;45476;-60
2022/11/22 11:53:52;;;;;;;;;1.00;1.00;;;;;;;;4689349;30;46249;-60
2022/11/22 11:56:23;;;;;;;;;0.50;0.50;;;;;;;;4688803;30;45421;-60
2022/11/22 11:58:53;;;;;;;;;2.25;1.00;;;;;;;;4703160;30;45609;-60
2022/11/22 12:04:24;;;;;;;;;;;;;;;;;;811091;30;279084736;-60
2022/11/22 12:06:54;;;;;;;;;3.75;2.00;;;;;;;;4701239;30;45467;-60
2022/11/22 12:09:27;;;;;;;;;0.50;0.00;;;;;;;;4704887;30;45550;-60
2022/11/22 12:11:54;;;;;;;;;2.50;0.75;;;;;;;;4705156;30;46960;-60
2022/11/22 12:14:22;;;;;;;;;3.00;2.00;;;;;;;;4705069;30;45498;-58
2022/11/22 12:16:49;;;;;;;;;1.00;1.00;;;;;;;;4703970;30;45371;-60
2022/11/22 12:19:15;;;;;;;;;0.75;0.00;;;;;;;;4704412;30;45528;-61
2022/11/22 12:21:46;;;;;;;;;4.20;0.60;;;;;;;;4704070;30;46967;-60
2022/11/22 12:24:14;;;;;;;;;3.33;1.00;;;;;;;;4707270;30;45665;-61
2022/11/22 12:26:40;;;;;;;;;1.50;0.50;;;;;;;;4709371;30;45389;-58
2022/11/22 12:29:05;;;;;;;;;1.00;1.00;;;;;;;;4702289;30;45282;-58
2022/11/22 12:31:40;;;;;;;;;2.50;1.00;;;;;;;;4697582;30;45301;-59
2022/11/22 12:34:11;;;;;;;;;2.00;1.00;;;;;;;;4692660;30;45380;-59
2022/11/22 12:36:39;;;;;;;;;0.33;0.33;;;;;;;;4704512;30;45403;-59
2022/11/22 12:39:07;;;;;;;;;2.33;1.00;;;;;;;;4700136;30;45483;-61
2022/11/22 12:41:33;;;;;;;;;2.75;1.50;;;;;;;;4707542;30;46383;-61
2022/11/22 12:44:03;;;;;;;;;1.67;1.33;;;;;;;;4714228;30;45388;-60
2022/11/22 12:46:38;;;;;;;;;5.00;1.00;;;;;;;;4709088;30;45519;-60
2022/11/22 12:49:12;;;;;;;;;1.00;1.00;;;;;;;;4705986;30;45900;-62
2022/11/22 12:51:49;;;;;;;;;4.00;1.00;;;;;;;;4707331;30;45821;-61
2022/11/22 12:54:41;;;;;;;;;2.33;1.00;;;;;;;;4709962;30;45591;-60
2022/11/22 12:57:17;;;;;;;;;4.33;1.33;;;;;;;;4707574;30;45490;-61
2022/11/22 12:59:42;;;;;;;;;1.67;0.33;;;;;;;;4705060;30;45414;-61
2022/11/22 13:02:07;;;;;;;;;1.67;1.00;;;;;;;;4704724;30;46256;-61
2022/11/22 13:04:45;;;;;;;;;2.00;1.00;;;;;;;;4706723;30;45458;-60
2022/11/22 13:07:10;;;;;;;;;2.33;0.67;;;;;;;;4704083;30;45440;-61
2022/11/22 13:09:40;;;;;;;;;0.67;0.67;;;;;;;;4705474;30;45464;-61
2022/11/22 13:12:13;;;;;;;;;0.67;0.67;;;;;;;;4702556;30;45440;-61
2022/11/22 13:14:41;;;;;;;;;0.00;0.00;;;;;;;;4693777;30;45333;-61
2022/11/22 13:17:07;;;;;;;;;3.00;1.00;;;;;;;;4709621;30;45325;-61
2022/11/22 13:19:38;;;;;;;;;1.33;1.33;;;;;;;;4712823;30;46912;-60
2022/11/22 13:22:12;;;;;;;;;1.00;1.00;;;;;;;;4713763;30;45431;-61
2022/11/22 13:24:46;;;;;;;;;2.33;1.67;;;;;;;;4711942;30;45551;-61
2022/11/22 13:27:21;;;;;;;;;3.33;0.67;;;;;;;;4701680;30;45512;-61
2022/11/22 13:29:46;;;;;;;;;4.33;0.67;;;;;;;;4699389;30;45467;-61
2022/11/22 13:32:11;;;;;;;;;0.67;0.67;;;;;;;;4714734;30;45560;-61
2022/11/22 13:34:41;;;;;;;;;2.50;1.50;;;;;;;;4713630;30;45484;-61
2022/11/22 13:37:11;;;;;;;;;4.33;2.67;;;;;;;;4687106;30;45352;-61
2022/11/22 13:39:44;;;;;;;;;4.33;1.67;;;;;;;;4706021;30;45245;-61
2022/11/22 13:42:12;;;;;;;;;0.67;0.00;;;;;;;;4703397;30;46639;-61
2022/11/22 13:44:48;;;;;;;;;1.00;0.00;;;;;;;;4697172;30;45914;-61
2022/11/22 13:47:20;;;;;;;;;2.00;2.00;;;;;;;;4689392;30;46958;-61
2022/11/22 13:49:46;;;;;;;;;1.00;1.00;;;;;;;;4710445;30;45438;-61
2022/11/22 13:52:13;;;;;;;;;9.00;2.00;;;;;;;;4701347;30;46790;-61
2022/11/22 13:54:40;;;;;;;;;2.00;0.67;;;;;;;;4701372;30;45455;-60
2022/11/22 13:57:24;;;;;;;;;5.00;2.00;;;;;;;;4703906;30;45355;-60
2022/11/22 14:00:08;;;;;;;;;1.33;1.33;;;;;;;;4703009;30;45596;-62
2022/11/22 14:02:33;;;;;;;;;5.00;2.00;;;;;;;;4701970;30;45477;-64
2022/11/22 14:04:59;;;;;;;;;1.00;1.00;;;;;;;;4696602;30;45586;-64
2022/11/22 14:07:36;;;;;;;;;1.00;1.00;;;;;;;;4702856;30;45672;-65
2022/11/22 14:10:02;;;;;;;;;3.00;2.00;;;;;;;;4702420;30;45483;-64
2022/11/22 14:12:46;;;;;;;;;3.00;1.67;;;;;;;;4706593;30;45341;-65
2022/11/22 14:15:12;;;;;;;;;4.00;1.00;;;;;;;;4710221;30;45645;-64
2022/11/22 14:17:42;;;;;;;;;4.33;2.00;;;;;;;;4703334;30;45462;-65
2022/11/22 14:20:26;;;;;;;;;3.00;1.00;;;;;;;;4702804;30;45571;-65
2022/11/22 14:22:57;;;;;;;;;4.33;1.00;;;;;;;;4703555;30;46394;-65
2022/11/22 14:25:28;;;;;;;;;0.00;0.00;;;;;;;;4702133;30;45282;-65
2022/11/22 14:28:07;;;;;;;;;0.67;0.67;;;;;;;;4703807;30;45559;-65
2022/11/22 14:30:41;;;;;;;;;5.00;0.67;;;;;;;;4699903;30;45522;-65
2022/11/22 14:33:17;;;;;;;;;3.00;2.00;;;;;;;;4703963;30;46407;-65
2022/11/22 14:35:58;;;;;;;;;1.00;1.00;;;;;;;;4707911;30;45687;-65
2022/11/22 14:38:23;;;;;;;;;1.33;1.33;;;;;;;;4701563;30;45277;-65
2022/11/22 14:40:48;;;;;;;;;3.50;1.75;;;;;;;;4703095;30;45525;-65
2022/11/22 14:43:22;;;;;;;;;1.00;1.00;;;;;;;;4705474;30;45769;-65
2022/11/22 14:45:49;;;;;;;;;1.00;1.00;;;;;;;;4703222;30;45493;-65
2022/11/22 14:48:17;;;;;;;;;3.00;2.00;;;;;;;;4703627;30;45353;-65
2022/11/22 14:50:44;;;;;;;;;7.33;4.00;;;;;;;;4701833;30;45581;-65
2022/11/22 14:53:17;;;;;;;;;3.00;1.00;;;;;;;;4686180;30;46308;-65
2022/11/22 14:55:43;;;;;;;;;3.67;2.67;;;;;;;;4698786;30;45493;-65
2022/11/22 14:58:14;;;;;;;;;3.33;2.33;;;;;;;;4704776;30;45693;-62
2022/11/22 15:00:42;;;;;;;;;4.33;1.33;;;;;;;;4706439;30;45746;-61
2022/11/22 15:03:26;;;;;;;;;5.00;3.00;;;;;;;;4704224;30;48041;-62
2022/11/22 15:06:06;;;;;;;;;2.00;2.00;;;;;;;;4700318;30;45350;-61
2022/11/22 15:08:49;;;;;;;;;6.00;5.00;;;;;;;;4700212;30;45424;-61
2022/11/22 15:11:24;;;;;;;;;6.33;4.00;;;;;;;;4686403;30;45699;-61
2022/11/22 15:13:59;;;;;;;;;4.00;3.33;;;;;;;;4685877;30;45679;-61
2022/11/22 15:16:26;;;;;;;;;5.00;2.67;;;;;;;;4702075;30;46673;-61
2022/11/22 15:18:52;;;;;;;;;4.33;1.00;;;;;;;;4701078;30;45283;-61
2022/11/22 15:21:17;;;;;;;;;8.67;3.67;;;;;;;;4700639;30;45968;-64
2022/11/22 15:23:43;;;;;;;;;3.67;2.67;;;;;;;;4703219;30;46164;-64
2022/11/22 15:26:13;;;;;;;;;5.33;1.67;;;;;;;;4701197;30;45761;-64
2022/11/22 15:28:45;;;;;;;;;3.00;2.00;;;;;;;;4700882;30;45430;-64
2022/11/22 15:31:13;;;;;;;;;5.33;3.33;;;;;;;;4701828;30;45447;-61
2022/11/22 15:33:39;;;;;;;;;6.33;2.00;;;;;;;;4706924;30;46214;-60
2022/11/22 15:36:16;;;;;;;;;2.00;2.00;;;;;;;;4702956;30;45474;-61
2022/11/22 15:38:42;;;;;;;;;3.33;2.00;;;;;;;;4701603;30;45357;-61
2022/11/22 15:41:15;;;;;;;;;7.00;3.00;;;;;;;;4699554;30;45791;-62
2022/11/22 15:43:41;;;;;;;;;3.00;3.00;;;;;;;;4683552;30;47322;-61
2022/11/22 15:46:07;;;;;;;;;4.00;2.00;;;;;;;;4695425;30;45448;-61
2022/11/22 15:48:33;;;;;;;;;4.00;3.67;;;;;;;;4689004;30;45388;-61
2022/11/22 15:51:00;;;;;;;;;4.67;2.33;;;;;;;;4703938;30;45455;-61
2022/11/22 15:53:26;;;;;;;;;5.67;4.00;;;;;;;;4707792;30;45585;-61
2022/11/22 15:56:07;;;;;;;;;4.33;3.67;;;;;;;;4705340;30;45408;-61
2022/11/22 15:58:33;;;;;;;;;6.00;3.00;;;;;;;;4707415;30;45725;-61
2022/11/22 16:01:00;;;;;;;;;4.00;4.00;;;;;;;;4706551;30;46662;-60
2022/11/22 16:03:30;;;;;;;;;6.00;6.00;;;;;;;;4705629;30;45536;-61
2022/11/22 16:06:01;;;;;;;;;3.00;1.00;;;;;;;;4699465;30;45366;-61
2022/11/22 16:08:27;;;;;;;;;2.00;2.00;;;;;;;;4709706;30;45549;-61
2022/11/22 16:10:52;;;;;;;;;4.00;4.00;;;;;;;;4708572;30;45554;-61
2022/11/22 16:13:17;;;;;;;;;2.00;2.00;;;;;;;;4704646;30;45443;-60
2022/11/22 16:15:42;;;;;;;;;5.67;2.67;;;;;;;;4701352;30;45465;-60
2022/11/22 16:18:10;;;;;;;;;3.00;3.00;;;;;;;;4704322;30;45471;-60
2022/11/22 16:20:36;;;;;;;;;4.67;3.00;;;;;;;;4703994;30;45468;-61
2022/11/22 16:23:08;;;;;;;;;4.00;4.00;;;;;;;;4703450;30;46174;-61
2022/11/22 16:25:34;;;;;;;;;5.00;3.67;;;;;;;;4705210;30;45539;-61
2022/11/22 16:28:02;;;;;;;;;6.33;6.00;;;;;;;;4707588;30;45440;-61
2022/11/22 16:30:27;;;;;;;;;4.33;4.00;;;;;;;;4707320;30;45485;-61
2022/11/22 16:32:54;;;;;;;;;8.00;5.00;;;;;;;;4707079;30;46254;-61
2022/11/22 16:35:19;;;;;;;;;7.00;4.00;;;;;;;;4708137;30;45419;-61
2022/11/22 16:37:44;;;;;;;;;5.00;4.67;;;;;;;;4700657;30;45679;-61
2022/11/22 16:40:12;;;;;;;;;7.33;5.00;;;;;;;;4698059;30;45822;-62
2022/11/22 16:42:39;;;;;;;;;5.67;4.00;;;;;;;;4705354;30;47191;-61
2022/11/22 16:45:05;;;;;;;;;6.00;4.33;;;;;;;;4699731;30;45448;-62
2022/11/22 16:47:30;;;;;;;;;6.00;3.67;;;;;;;;4709251;30;45458;-61
2022/11/22 16:49:56;;;;;;;;;5.33;3.00;;;;;;;;4704266;30;47240;-61
2022/11/22 16:52:23;;;;;;;;;3.33;3.33;;;;;;;;4701930;30;48566;-61
2022/11/22 16:54:48;;;;;;;;;5.67;2.67;;;;;;;;4688866;30;45560;-61
2022/11/22 16:57:14;;;;;;;;;2.00;1.00;;;;;;;;4713925;30;45412;-61
2022/11/22 16:59:39;;;;;;;;;3.00;2.00;;;;;;;;4701814;30;45437;-60
2022/11/22 17:02:11;;;;;;;;;1.67;1.67;;;;;;;;4703237;30;45473;-60
2022/11/22 17:04:36;;;;;;;;;3.00;3.00;;;;;;;;4688303;30;45504;-60
2022/11/22 17:07:02;;;;;;;;;5.33;2.33;;;;;;;;4710819;30;45341;-60
2022/11/22 17:09:27;;;;;;;;;6.33;3.33;;;;;;;;4703829;30;45543;-60
2022/11/22 17:11:53;;;;;;;;;3.67;2.33;;;;;;;;4703346;30;45967;-60
2022/11/22 17:14:18;;;;;;;;;3.00;3.00;;;;;;;;4705692;30;45408;-60
2022/11/22 17:16:46;;;;;;;;;4.00;1.00;;;;;;;;4703149;30;45433;-60
2022/11/22 17:19:12;;;;;;;;;4.00;1.00;;;;;;;;4708172;30;45595;-60
2022/11/22 17:21:37;;;;;;;;;5.67;1.00;;;;;;;;4704294;30;45431;-61
2022/11/22 17:24:04;;;;;;;;;4.00;4.00;;;;;;;;4706028;30;45830;-61
2022/11/22 17:26:31;;;;;;;;;4.00;3.00;;;;;;;;4701651;30;45416;-60
2022/11/22 17:28:56;;;;;;;;;2.00;2.00;;;;;;;;4696212;30;45695;-59
2022/11/22 17:31:24;;;;;;;;;2.67;1.00;;;;;;;;4708696;30;47578;-60
2022/11/22 17:33:50;;;;;;;;;6.00;4.00;;;;;;;;4702591;30;45824;-60
2022/11/22 17:36:20;;;;;;;;;3.00;2.00;;;;;;;;4697898;30;45447;-61
2022/11/22 17:38:46;;;;;;;;;3.67;3.67;;;;;;;;4704954;30;45372;-61
2022/11/22 17:41:11;;;;;;;;;7.33;3.33;;;;;;;;4701261;30;45393;-60
2022/11/22 17:43:36;;;;;;;;;3.33;2.33;;;;;;;;4701538;30;45694;-60
2022/11/22 17:46:02;;;;;;;;;5.00;2.33;;;;;;;;4698210;30;46877;-60
2022/11/22 17:48:27;;;;;;;;;4.67;3.00;;;;;;;;4707150;30;45489;-59
2022/11/22 17:50:52;;;;;;;;;3.33;2.00;;;;;;;;4703336;30;46318;-60
2022/11/22 17:53:17;;;;;;;;;2.00;1.33;;;;;;;;4702859;30;45627;-60
2022/11/22 17:55:42;;;;;;;;;5.00;3.00;;;;;;;;4704768;30;45452;-60
2022/11/22 17:58:07;;;;;;;;;4.67;3.00;;;;;;;;4702533;30;45487;-60
2022/11/22 18:00:33;;;;;;;;;5.00;3.67;;;;;;;;4701829;30;47015;-60
2022/11/22 18:02:58;;;;;;;;;3.33;2.33;;;;;;;;4701900;30;45357;-60
2022/11/22 18:05:23;;;;;;;;;4.67;2.00;;;;;;;;4704969;30;45554;-60
2022/11/22 18:07:48;;;;;;;;;4.00;2.33;;;;;;;;4707000;30;45743;-60
2022/11/22 18:10:13;;;;;;;;;5.33;3.67;;;;;;;;4706729;30;45355;-60
2022/11/22 18:12:39;;;;;;;;;6.67;6.00;;;;;;;;4697648;30;45643;-60
2022/11/22 18:15:05;;;;;;;;;7.33;2.00;;;;;;;;4688043;30;45472;-60
2022/11/22 18:17:33;;;;;;;;;3.33;3.00;;;;;;;;4705961;30;45339;-60
2022/11/22 18:19:59;;;;;;;;;6.33;3.33;;;;;;;;4702500;30;45478;-60
2022/11/22 18:22:24;;;;;;;;;4.00;3.00;;;;;;;;4705729;30;45434;-60
2022/11/22 18:24:49;;;;;;;;;5.67;5.67;;;;;;;;4709571;30;45424;-59
2022/11/22 18:27:15;;;;;;;;;9.33;8.00;;;;;;;;4685245;30;45633;-59
2022/11/22 18:29:40;;;;;;;;;6.67;3.00;;;;;;;;4708783;30;46166;-59
2022/11/22 18:32:06;;;;;;;;;8.67;6.00;;;;;;;;4702493;30;45325;-59
2022/11/22 18:34:31;;;;;;;;;6.00;6.00;;;;;;;;4701257;30;45459;-59
2022/11/22 18:36:56;;;;;;;;;8.67;5.00;;;;;;;;4707609;30;45427;-59
2022/11/22 18:39:22;;;;;;;;;4.33;4.00;;;;;;;;4703877;30;45412;-60
2022/11/22 18:41:47;;;;;;;;;5.00;5.00;;;;;;;;4703147;30;45438;-60
2022/11/22 18:44:12;;;;;;;;;5.33;4.33;;;;;;;;4710350;30;45485;-60
2022/11/22 18:46:38;;;;;;;;;6.67;3.67;;;;;;;;4708451;30;45401;-60
2022/11/22 18:49:04;;;;;;;;;5.00;5.00;;;;;;;;4700971;30;45665;-60
2022/11/22 18:51:29;;;;;;;;;6.00;3.67;;;;;;;;4699119;30;45547;-60
2022/11/22 18:53:54;;;;;;;;;8.33;4.33;;;;;;;;4703288;30;45389;-60
2022/11/22 18:56:19;;;;;;;;;7.33;4.00;;;;;;;;4703145;30;45489;-60
2022/11/22 18:58:44;;;;;;;;;7.00;4.00;;;;;;;;4701747;30;46171;-59
2022/11/22 19:01:20;;;;;;;;;3.67;3.67;;;;;;;;4702641;30;45330;-59
2022/11/22 19:03:46;;;;;;;;;6.33;6.00;;;;;;;;4706021;30;45404;-60
2022/11/22 19:06:12;;;;;;;;;7.33;5.33;;;;;;;;4703824;30;45654;-60
2022/11/22 19:08:38;;;;;;;;;7.67;3.67;;;;;;;;4701379;30;45405;-60
2022/11/22 19:11:03;;;;;;;;;6.33;6.00;;;;;;;;4702222;30;45895;-60
2022/11/22 19:13:36;;;;;;;;;7.67;6.00;;;;;;;;4706515;30;45277;-60
2022/11/22 19:16:09;;;;;;;;;7.67;5.00;;;;;;;;4694462;30;45486;-60
2022/11/22 19:18:36;;;;;;;;;7.33;6.00;;;;;;;;4699669;30;46308;-60
2022/11/22 19:21:02;;;;;;;;;7.67;6.00;;;;;;;;4704713;30;45454;-60
2022/11/22 19:23:28;;;;;;;;;4.33;4.33;;;;;;;;4701050;30;45450;-60
2022/11/22 19:25:53;;;;;;;;;5.00;5.00;;;;;;;;4701511;30;45688;-60
2022/11/22 19:28:19;;;;;;;;;5.00;5.00;;;;;;;;4701371;30;45388;-60
2022/11/22 19:30:44;;;;;;;;;5.00;4.33;;;;;;;;4700005;30;45362;-60
2022/11/22 19:33:09;;;;;;;;;8.00;4.00;;;;;;;;4706681;30;45725;-60
2022/11/22 19:35:35;;;;;;;;;10.67;5.33;;;;;;;;4699164;30;45416;-58
2022/11/22 19:38:01;;;;;;;;;6.33;5.67;;;;;;;;4705998;30;45496;-59
2022/11/22 19:40:26;;;;;;;;;10.67;4.33;;;;;;;;4703137;30;45366;-59
2022/11/22 19:42:51;;;;;;;;;7.00;5.00;;;;;;;;4702701;30;45713;-59
2022/11/22 19:45:17;;;;;;;;;6.67;5.00;;;;;;;;4699930;30;45577;-59
2022/11/22 19:47:42;;;;;;;;;7.00;3.33;;;;;;;;4706981;30;45384;-59
2022/11/22 19:50:07;;;;;;;;;4.00;4.00;;;;;;;;4703799;30;45579;-60
2022/11/22 19:52:32;;;;;;;;;6.00;3.67;;;;;;;;4701328;30;45625;-60
2022/11/22 19:54:57;;;;;;;;;5.67;4.00;;;;;;;;4700203;30;45655;-60
2022/11/22 19:57:23;;;;;;;;;9.33;6.00;;;;;;;;4701711;30;45586;-60
2022/11/22 19:59:49;;;;;;;;;6.00;4.00;;;;;;;;4698936;30;45356;-60
2022/11/22 20:02:14;;;;;;;;;7.67;6.00;;;;;;;;4699973;30;45691;-60
2022/11/22 20:04:39;;;;;;;;;8.33;6.00;;;;;;;;4698842;30;45487;-60
2022/11/22 20:07:04;;;;;;;;;5.00;4.00;;;;;;;;4700993;30;46298;-61
2022/11/22 20:09:29;;;;;;;;;5.00;4.33;;;;;;;;4698567;30;45528;-61
2022/11/22 20:11:54;;;;;;;;;3.67;3.00;;;;;;;;4700748;30;45556;-61
2022/11/22 20:14:20;;;;;;;;;5.33;3.00;;;;;;;;4696688;30;45516;-60
2022/11/22 20:16:45;;;;;;;;;7.33;5.67;;;;;;;;4698948;30;46129;-60
2022/11/22 20:19:11;;;;;;;;;6.67;2.67;;;;;;;;4698587;30;46374;-60
2022/11/22 20:21:36;;;;;;;;;16.00;5.33;;;;;;;;4700696;30;45765;-60